Time;durP1;ratioP1;P1;durP2;ratioP2;P2;SDS_P1;SDS_P2;PMS_P1;PMS_P2;Temp;Humidity;BMP_temperature;BMP_pressure;BME280_temperature;BME280_humidity;BME280_pressure;Samples;Min_cycle;Max_cycle;Signal;HPM_P1;HPM_P2
2022/08/17 00:01:14;;;;;;;15.43;11.98;;;23.50;79.00;;;;;;5074611;28;20036;-87
2022/08/17 00:03:42;;;;;;;13.40;11.05;;;23.50;79.00;;;;;;5072799;28;20405;-87
2022/08/17 00:06:15;;;;;;;11.95;10.13;;;23.40;79.00;;;;;;5073275;28;20024;-86
2022/08/17 00:08:44;;;;;;;11.57;10.38;;;23.40;79.10;;;;;;5073517;28;20484;-87
2022/08/17 00:11:37;;;;;;;11.38;10.18;;;23.40;79.10;;;;;;5073546;28;20024;-87
2022/08/17 00:14:06;;;;;;;12.48;10.07;;;23.40;79.10;;;;;;5073025;28;20024;-87
2022/08/17 00:16:38;;;;;;;12.77;10.73;;;23.40;78.90;;;;;;5074204;28;20021;-85
2022/08/17 00:19:06;;;;;;;12.53;10.53;;;23.40;78.90;;;;;;5073144;28;20170;-86
2022/08/17 00:21:34;;;;;;;10.50;9.27;;;23.40;79.40;;;;;;5072953;28;20027;-86
2022/08/17 00:24:00;;;;;;;11.95;9.88;;;23.40;78.70;;;;;;5074121;28;20024;-86
2022/08/17 00:26:27;;;;;;;10.43;9.07;;;23.50;78.60;;;;;;5075140;28;20432;-86
2022/08/17 00:28:53;;;;;;;12.60;10.30;;;23.40;78.50;;;;;;5059504;28;20024;-87
2022/08/17 00:31:19;;;;;;;10.77;9.57;;;23.40;78.50;;;;;;5075120;28;20021;-85
2022/08/17 00:33:44;;;;;;;11.05;9.60;;;23.40;78.40;;;;;;5074001;28;20385;-87
2022/08/17 00:36:11;;;;;;;13.52;10.18;;;23.40;78.30;;;;;;5073116;28;20451;-87
2022/08/17 00:38:37;;;;;;;15.95;10.85;;;23.40;78.20;;;;;;5073263;28;20041;-88
2022/08/17 00:41:16;;;;;;;12.57;10.23;;;23.40;78.20;;;;;;5074835;28;20031;-88
2022/08/17 00:43:47;;;;;;;13.30;10.77;;;23.40;78.30;;;;;;5073404;28;20029;-88
2022/08/17 00:46:21;;;;;;;14.95;11.48;;;23.40;78.30;;;;;;5073397;28;20024;-89
2022/08/17 00:48:48;;;;;;;15.05;12.57;;;23.40;78.30;;;;;;5073387;28;20035;-88
2022/08/17 00:51:29;;;;;;;14.20;12.15;;;23.40;78.30;;;;;;5074342;28;20025;-88
2022/08/17 00:54:03;;;;;;;14.18;12.68;;;23.40;78.40;;;;;;5073391;28;20040;-88
2022/08/17 00:56:31;;;;;;;;;;;23.40;78.50;;;;;;5073197;28;20503;-88
2022/08/17 00:58:57;;;;;;;13.18;11.43;;;23.30;78.40;;;;;;5074146;28;19926;-88
2022/08/17 01:01:24;;;;;;;13.02;11.52;;;23.30;78.40;;;;;;5073190;28;20360;-89
2022/08/17 01:03:51;;;;;;;13.80;11.68;;;23.20;78.50;;;;;;5072896;28;20029;-88
2022/08/17 01:06:18;;;;;;;13.50;11.75;;;23.20;78.70;;;;;;5072931;28;20483;-88
2022/08/17 01:08:44;;;;;;;15.23;11.77;;;23.30;78.80;;;;;;5056105;28;20067;-89
2022/08/17 01:11:09;;;;;;;16.38;12.23;;;23.20;78.90;;;;;;5056150;28;20431;-87
2022/08/17 01:13:41;;;;;;;14.07;12.65;;;23.20;79.00;;;;;;5072671;28;20036;-88
2022/08/17 01:16:14;;;;;;;15.30;13.35;;;23.20;79.10;;;;;;5072230;28;20031;-88
2022/08/17 01:18:41;;;;;;;14.18;12.10;;;23.10;79.10;;;;;;5073726;28;20563;-88
2022/08/17 01:21:16;;;;;;;13.45;11.95;;;23.10;79.10;;;;;;5073802;28;20021;-86
2022/08/17 01:23:42;;;;;;;14.70;12.93;;;23.10;79.30;;;;;;5056283;28;20054;-88
2022/08/17 01:26:07;;;;;;;14.48;12.98;;;23.10;79.30;;;;;;5055282;28;20029;-88
2022/08/17 01:28:34;;;;;;;14.32;11.85;;;23.10;79.40;;;;;;5056054;28;20025;-88
2022/08/17 01:31:03;;;;;;;13.77;12.40;;;23.10;79.40;;;;;;5072592;28;20032;-88
2022/08/17 01:33:29;;;;;;;15.20;12.13;;;23.10;79.40;;;;;;5072615;28;20464;-87
2022/08/17 01:35:55;;;;;;;15.48;12.23;;;23.00;79.40;;;;;;5055506;28;20035;-87
2022/08/17 01:38:22;;;;;;;14.38;12.88;;;23.10;79.50;;;;;;5072093;28;20171;-87
2022/08/17 01:40:56;;;;;;;14.05;12.63;;;23.10;79.50;;;;;;5056303;28;20024;-87
2022/08/17 01:43:31;;;;;;;15.45;13.35;;;23.00;79.50;;;;;;5072064;28;20032;-86
2022/08/17 01:46:00;;;;;;;15.15;11.70;;;23.00;79.50;;;;;;5072201;28;20024;-87
2022/08/17 01:48:30;;;;;;;13.80;12.35;;;23.00;79.60;;;;;;5071911;28;20024;-87
2022/08/17 01:50:55;;;;;;;14.13;12.18;;;23.00;79.60;;;;;;5055544;28;20115;-86
2022/08/17 01:53:33;;;;;;;14.63;11.65;;;23.00;79.60;;;;;;5071918;28;20139;-86
2022/08/17 01:56:05;;;;;;;13.57;11.95;;;22.90;79.70;;;;;;5071832;28;20392;-86
2022/08/17 01:58:32;;;;;;;16.80;12.80;;;22.90;79.70;;;;;;5072236;28;20075;-87
2022/08/17 02:00:58;;;;;;;13.93;12.52;;;22.90;79.80;;;;;;5073031;28;20017;-87
2022/08/17 02:03:24;;;;;;;20.30;12.75;;;22.90;79.80;;;;;;5072458;28;20079;-87
2022/08/17 02:05:52;;;;;;;15.05;12.00;;;22.90;80.00;;;;;;5055288;28;20032;-86
2022/08/17 02:08:21;;;;;;;15.35;11.95;;;22.80;79.80;;;;;;5072230;28;20468;-87
2022/08/17 02:10:48;;;;;;;13.63;12.20;;;22.80;79.90;;;;;;5073091;28;20029;-86
2022/08/17 02:13:15;;;;;;;15.52;13.02;;;22.80;80.00;;;;;;5073145;28;20109;-86
2022/08/17 02:15:41;;;;;;;17.15;13.30;;;22.80;80.20;;;;;;5072937;28;20024;-86
2022/08/17 02:18:09;;;;;;;16.42;13.65;;;22.70;80.20;;;;;;5055367;28;21027;-86
2022/08/17 02:20:37;;;;;;;15.13;13.13;;;22.70;80.30;;;;;;5073436;28;20029;-86
2022/08/17 02:23:04;;;;;;;17.00;12.40;;;22.70;80.40;;;;;;5071836;28;20024;-87
2022/08/17 02:25:32;;;;;;;14.10;12.07;;;22.70;80.50;;;;;;5072428;28;20060;-86
2022/08/17 02:27:58;;;;;;;14.57;12.27;;;22.70;80.60;;;;;;5076758;28;20029;-86
2022/08/17 02:30:25;;;;;;;15.38;12.68;;;22.70;80.70;;;;;;5060238;28;20123;-85
2022/08/17 02:32:51;;;;;;;14.57;12.82;;;22.60;80.70;;;;;;5077000;28;20357;-85
2022/08/17 02:35:17;;;;;;;15.00;12.52;;;22.60;80.70;;;;;;5058542;28;20055;-84
2022/08/17 02:37:43;;;;;;;14.52;12.23;;;22.60;80.80;;;;;;5074867;28;20072;-85
2022/08/17 02:40:09;;;;;;;13.68;12.10;;;22.60;81.00;;;;;;5057967;28;20385;-85
2022/08/17 02:42:38;;;;;;;15.98;12.73;;;22.60;81.10;;;;;;5057892;28;20058;-84
2022/08/17 02:45:09;;;;;;;16.83;13.90;;;22.50;81.10;;;;;;5076181;28;20024;-83
2022/08/17 02:47:36;;;;;;;15.40;12.80;;;22.50;81.20;;;;;;5075108;28;20012;-83
2022/08/17 02:50:02;;;;;;;15.23;13.50;;;22.50;81.30;;;;;;5074738;28;20504;-84
2022/08/17 02:52:36;;;;;;;16.50;12.95;;;22.40;81.30;;;;;;5074474;28;20049;-85
2022/08/17 02:55:05;;;;;;;15.82;13.80;;;22.40;81.50;;;;;;5075816;28;20453;-85
2022/08/17 02:57:31;;;;;;;16.05;14.07;;;22.40;81.60;;;;;;5074431;28;20115;-84
2022/08/17 02:59:56;;;;;;;15.57;13.10;;;22.40;81.70;;;;;;5058193;28;20119;-85
2022/08/17 03:02:22;;;;;;;17.65;13.45;;;22.30;81.80;;;;;;5058114;28;20028;-87
2022/08/17 03:04:47;;;;;;;16.05;14.35;;;22.30;82.00;;;;;;5058454;28;20158;-88
2022/08/17 03:07:14;;;;;;;16.27;13.60;;;22.30;82.10;;;;;;5057741;28;20032;-87
2022/08/17 03:09:41;;;;;;;17.10;15.27;;;22.30;82.10;;;;;;5058206;28;20100;-87
2022/08/17 03:12:09;;;;;;;19.38;15.07;;;22.20;82.10;;;;;;5074710;28;20469;-86
2022/08/17 03:14:42;;;;;;;17.48;14.82;;;22.20;82.20;;;;;;5074619;28;20017;-87
2022/08/17 03:17:09;;;;;;;16.50;13.85;;;22.20;82.40;;;;;;5074349;28;20090;-86
2022/08/17 03:19:35;;;;;;;16.63;14.65;;;22.20;82.40;;;;;;5057838;28;20097;-86
2022/08/17 03:22:03;;;;;;;18.08;15.77;;;22.20;82.50;;;;;;5075733;28;20116;-87
2022/08/17 03:24:29;;;;;;;16.75;14.82;;;22.10;82.50;;;;;;5074000;28;20103;-87
2022/08/17 03:26:54;;;;;;;19.85;15.18;;;22.10;82.70;;;;;;5058085;28;20438;-88
2022/08/17 03:29:20;;;;;;;18.10;14.88;;;22.10;82.80;;;;;;5057835;28;20059;-87
2022/08/17 03:31:46;;;;;;;18.15;16.08;;;22.10;82.90;;;;;;5057663;28;20040;-87
2022/08/17 03:34:13;;;;;;;16.42;14.77;;;22.10;82.90;;;;;;5057498;28;20028;-88
2022/08/17 03:36:39;;;;;;;16.67;14.80;;;22.10;83.10;;;;;;5073885;28;20025;-87
2022/08/17 03:39:05;;;;;;;17.38;15.57;;;22.00;83.10;;;;;;5056920;28;20434;-86
2022/08/17 03:41:31;;;;;;;18.45;14.50;;;22.00;83.20;;;;;;5057514;28;20020;-88
2022/08/17 03:43:57;;;;;;;17.02;15.30;;;22.00;83.30;;;;;;5075446;28;20029;-88
2022/08/17 03:57:22;;;;;;;19.23;15.02;;;22.00;83.90;;;;;;5074626;28;20047;-86
2022/08/17 03:59:48;;;;;;;17.42;15.68;;;22.00;84.00;;;;;;5056974;28;20416;-87
2022/08/17 04:02:29;;;;;;;19.75;15.75;;;22.00;84.30;;;;;;5056928;28;20559;-86
2022/08/17 04:04:56;;;;;;;19.67;16.75;;;22.10;84.40;;;;;;5073577;28;20138;-87
2022/08/17 04:07:24;;;;;;;18.85;16.48;;;22.10;84.30;;;;;;5073788;28;20482;-88
2022/08/17 04:09:50;;;;;;;17.77;15.93;;;22.10;84.40;;;;;;5073211;28;20066;-88
2022/08/17 04:12:18;;;;;;;17.33;14.25;;;22.10;84.30;;;;;;5067474;28;20033;-87
2022/08/17 04:14:44;;;;;;;17.60;14.88;;;22.10;84.30;;;;;;5067316;28;20089;-86
2022/08/17 04:17:10;;;;;;;17.52;15.57;;;22.10;84.20;;;;;;5072276;28;20041;-87
2022/08/17 04:19:35;;;;;;;18.02;16.13;;;22.10;84.20;;;;;;5073011;28;20052;-88
2022/08/17 04:22:04;;;;;;;17.38;15.40;;;22.10;84.20;;;;;;5071838;28;20051;-86
2022/08/17 04:24:33;;;;;;;16.30;14.60;;;22.10;84.20;;;;;;5071161;28;20035;-86
2022/08/17 04:27:00;;;;;;;15.13;12.93;;;22.10;84.20;;;;;;5055090;28;20025;-86
2022/08/17 04:29:25;;;;;;;16.48;14.18;;;22.10;84.10;;;;;;5072353;28;20056;-87
2022/08/17 04:31:52;;;;;;;17.42;13.70;;;22.20;84.10;;;;;;5073520;28;20543;-87
2022/08/17 04:34:18;;;;;;;14.88;13.27;;;22.10;83.90;;;;;;5057136;28;20025;-86
2022/08/17 04:36:44;;;;;;;16.25;14.18;;;22.10;83.70;;;;;;5073251;28;20016;-87
2022/08/17 04:39:10;;;;;;;17.85;13.80;;;22.20;83.80;;;;;;5039506;28;20032;-86
2022/08/17 04:44:20;;;;;;;16.38;13.65;;;22.10;83.60;;;;;;5074046;28;20051;-86
2022/08/17 04:46:46;;;;;;;16.02;14.18;;;22.10;83.50;;;;;;5039506;28;20033;-86
2022/08/17 04:49:11;;;;;;;17.48;12.70;;;22.10;83.40;;;;;;5039395;28;20021;-85
2022/08/17 04:51:40;;;;;;;13.75;11.55;;;22.10;83.30;;;;;;5037969;28;20043;-87
2022/08/17 04:54:18;;;;;;;15.30;13.13;;;22.10;83.30;;;;;;5072458;28;20109;-83
2022/08/17 04:56:44;;;;;;;11.90;10.60;;;22.10;83.10;;;;;;5072895;28;20024;-88
2022/08/17 04:59:20;;;;;;;16.40;11.95;;;22.10;83.50;;;;;;5056316;28;20078;-88
2022/08/17 05:01:49;;;;;;;16.77;12.80;;;22.10;82.60;;;;;;5073132;28;20020;-87
2022/08/17 05:04:18;;;;;;;18.35;14.43;;;22.20;82.70;;;;;;5074927;28;20062;-89
2022/08/17 05:06:45;;;;;;;15.95;13.75;;;22.10;82.70;;;;;;5076229;28;20028;-91
2022/08/17 05:09:11;;;;;;;17.80;15.68;;;22.10;82.80;;;;;;5041200;28;20029;-91
2022/08/17 05:11:40;;;;;;;20.35;17.08;;;21.90;83.00;;;;;;5054475;28;20036;-90
2022/08/17 05:14:05;;;;;;;17.98;15.20;;;21.90;83.10;;;;;;5036463;28;20037;-89
2022/08/17 05:16:31;;;;;;;15.55;13.90;;;21.80;83.20;;;;;;5035906;28;20135;-87
2022/08/17 05:18:58;;;;;;;14.88;13.13;;;21.80;83.20;;;;;;5018971;28;20079;-88
2022/08/17 05:21:24;;;;;;;17.23;13.15;;;21.70;83.20;;;;;;5020043;28;20028;-87
2022/08/17 05:23:49;;;;;;;16.17;13.10;;;21.80;83.10;;;;;;5052869;28;20104;-85
2022/08/17 05:26:17;;;;;;;14.73;12.82;;;21.80;83.10;;;;;;5052059;28;20535;-87
2022/08/17 05:28:43;;;;;;;15.50;13.32;;;21.80;83.00;;;;;;5053573;28;20053;-88
2022/08/17 05:31:09;;;;;;;16.67;13.07;;;21.80;83.00;;;;;;5036595;28;20029;-89
2022/08/17 05:33:39;;;;;;;15.45;13.27;;;21.80;83.20;;;;;;5036728;28;20029;-85
2022/08/17 05:36:07;;;;;;;14.45;12.70;;;21.80;83.20;;;;;;5052187;28;20021;-87
2022/08/17 05:38:33;;;;;;;12.98;11.63;;;21.80;83.00;;;;;;5053083;28;20459;-86
2022/08/17 05:41:01;;;;;;;14.77;13.27;;;21.90;82.90;;;;;;5019575;28;20021;-87
2022/08/17 05:43:29;;;;;;;14.50;12.20;;;21.90;82.80;;;;;;5052446;28;20021;-87
2022/08/17 05:46:04;;;;;;;13.63;11.75;;;21.90;82.70;;;;;;5052218;28;20048;-87
2022/08/17 05:48:35;;;;;;;14.70;12.20;;;21.90;82.50;;;;;;5053858;28;20068;-88
2022/08/17 05:51:31;;;;;;;15.40;12.30;;;21.90;82.30;;;;;;5054070;28;20064;-87
2022/08/17 05:54:25;;;;;;;16.42;11.27;;;21.90;82.20;;;;;;5051848;28;20103;-86
2022/08/17 05:57:15;;;;;;;14.13;11.70;;;22.00;82.10;;;;;;5053731;28;20112;-89
2022/08/17 06:00:06;;;;;;;14.73;11.32;;;22.00;82.10;;;;;;5052554;28;20048;-88
2022/08/17 06:02:43;;;;;;;15.05;12.73;;;22.00;82.00;;;;;;5053291;28;20020;-88
2022/08/17 06:05:20;;;;;;;15.40;11.55;;;22.00;81.90;;;;;;5056449;28;20029;-86
2022/08/17 06:08:22;;;;;;;13.63;11.75;;;22.00;81.80;;;;;;5056292;28;20033;-87
2022/08/17 06:10:59;;;;;;;11.85;10.32;;;22.10;81.70;;;;;;5055837;28;20393;-88
2022/08/17 06:14:04;;;;;;;12.68;10.65;;;22.10;81.50;;;;;;5055683;28;20021;-84
2022/08/17 06:16:37;;;;;;;12.55;11.00;;;22.10;81.20;;;;;;5056281;28;20056;-84
2022/08/17 06:19:13;;;;;;;13.43;10.20;;;22.10;80.70;;;;;;5054858;28;20037;-84
2022/08/17 06:21:43;;;;;;;12.73;10.77;;;22.10;80.20;;;;;;5054923;28;20025;-84
2022/08/17 06:24:33;;;;;;;10.77;9.40;;;22.10;79.80;;;;;;5054771;28;20028;-84
2022/08/17 06:27:17;;;;;;;14.38;10.73;;;22.20;79.80;;;;;;5054777;28;20028;-84
2022/08/17 06:29:42;;;;;;;19.00;12.68;;;22.20;79.80;;;;;;5074160;28;20082;-84
2022/08/17 06:32:11;;;;;;;15.43;12.20;;;22.10;79.70;;;;;;5074640;28;20032;-84
2022/08/17 06:34:38;;;;;;;13.45;11.68;;;22.20;80.50;;;;;;5075027;28;20050;-84
2022/08/17 06:37:31;;;;;;;13.13;11.52;;;22.20;80.00;;;;;;5075849;28;20039;-84
2022/08/17 06:40:30;;;;;;;14.90;12.18;;;22.20;80.40;;;;;;5074261;28;20021;-83
2022/08/17 06:43:26;;;;;;;15.35;12.90;;;22.30;80.80;;;;;;5074325;28;20021;-85
2022/08/17 06:46:01;;;;;;;17.73;14.93;;;22.30;81.10;;;;;;5074906;28;20376;-85
2022/08/17 06:48:41;;;;;;;19.15;16.00;;;22.30;81.30;;;;;;5076100;28;20060;-83
2022/08/17 06:51:20;;;;;;;18.15;14.82;;;22.30;81.70;;;;;;5074947;28;20029;-84
2022/08/17 06:53:58;;;;;;;14.98;13.38;;;22.30;82.50;;;;;;5074646;28;20055;-84
2022/08/17 06:56:56;;;;;;;15.00;13.00;;;22.30;82.20;;;;;;5074541;28;20043;-84
2022/08/17 06:59:32;;;;;;;18.10;14.93;;;22.30;82.30;;;;;;5074856;28;20606;-85
2022/08/17 07:02:04;;;;;;;16.98;14.35;;;22.30;82.60;;;;;;5076099;28;20021;-83
2022/08/17 07:04:33;;;;;;;16.98;15.05;;;22.30;82.70;;;;;;5074311;28;20029;-84
2022/08/17 07:08:00;;;;;;;16.60;14.70;;;22.30;82.80;;;;;;5057425;28;20024;-85
2022/08/17 07:09:51;;;;;;;16.02;14.32;;;22.30;82.90;;;;;;5075341;28;20392;-85
2022/08/17 07:12:28;;;;;;;16.98;14.75;;;22.30;83.10;;;;;;5074021;28;20025;-84
2022/08/17 07:15:06;;;;;;;18.08;15.27;;;22.30;83.30;;;;;;5073130;28;20031;-84
2022/08/17 07:17:33;;;;;;;17.48;15.68;;;22.30;83.40;;;;;;5075309;28;20511;-84
2022/08/17 07:20:08;;;;;;;17.23;15.38;;;22.40;83.80;;;;;;5074316;28;20029;-84
2022/08/17 07:22:40;;;;;;;17.95;15.77;;;22.40;84.00;;;;;;5074035;28;20073;-85
2022/08/17 07:25:12;;;;;;;18.23;15.95;;;22.40;84.10;;;;;;5073436;28;20035;-85
2022/08/17 07:27:40;;;;;;;18.50;15.68;;;22.50;83.90;;;;;;5074279;28;20038;-85
2022/08/17 07:30:10;;;;;;;20.23;17.08;;;22.50;84.00;;;;;;5075059;28;20058;-85
2022/08/17 07:32:42;;;;;;;20.45;17.48;;;22.50;84.20;;;;;;5075340;28;20025;-84
2022/08/17 07:35:15;;;;;;;19.50;16.77;;;22.50;84.30;;;;;;5074787;28;20372;-84
2022/08/17 07:38:12;;;;;;;21.15;17.38;;;22.50;84.60;;;;;;5073566;28;20056;-83
2022/08/17 07:40:44;;;;;;;27.45;19.05;;;22.50;84.80;;;;;;5075020;28;20040;-83
2022/08/17 07:43:25;;;;;;;25.13;19.75;;;22.60;85.00;;;;;;5074723;28;20017;-83
2022/08/17 07:49:06;;;;;;;22.73;18.15;;;22.60;85.50;;;;;;5074575;28;20465;-83
2022/08/17 07:51:32;;;;;;;28.30;19.50;;;22.70;85.40;;;;;;5073237;28;20028;-83
2022/08/17 07:54:01;;;;;;;22.08;18.02;;;22.70;85.40;;;;;;5074644;28;20055;-83
2022/08/17 07:56:37;;;;;;;21.63;19.33;;;22.70;85.50;;;;;;5072658;28;20431;-83
2022/08/17 07:59:06;;;;;;;20.50;18.30;;;22.70;85.40;;;;;;5074398;28;20039;-82
2022/08/17 08:01:33;;;;;;;21.27;19.00;;;22.70;85.40;;;;;;5074623;28;20028;-83
2022/08/17 08:03:59;;;;;;;22.92;18.15;;;22.70;85.50;;;;;;5056986;28;20025;-83
2022/08/17 08:06:26;;;;;;;22.63;20.17;;;22.70;85.80;;;;;;5073571;28;20081;-83
2022/08/17 08:08:54;;;;;;;23.35;20.35;;;22.70;86.00;;;;;;5074192;28;20051;-83
2022/08/17 08:11:33;;;;;;;20.98;18.88;;;22.70;86.20;;;;;;5072981;28;20028;-83
2022/08/17 08:14:32;;;;;;;22.92;20.52;;;22.70;86.30;;;;;;5072802;28;20119;-86
2022/08/17 08:17:02;;;;;;;22.88;19.70;;;22.80;86.40;;;;;;5073210;28;20036;-87
2022/08/17 08:19:30;;;;;;;20.42;18.25;;;22.80;86.30;;;;;;5074923;28;20041;-88
2022/08/17 08:21:59;;;;;;;23.50;20.42;;;22.80;86.40;;;;;;5075003;28;20024;-86
2022/08/17 08:24:59;;;;;;;22.50;19.85;;;22.80;86.50;;;;;;5076277;28;20032;-88
2022/08/17 08:27:48;;;;;;;21.60;19.20;;;22.80;86.90;;;;;;5075220;28;20098;-88
2022/08/17 08:30:20;;;;;;;22.85;19.55;;;22.80;87.30;;;;;;5075684;28;20107;-87
2022/08/17 08:33:13;;;;;;;23.48;19.85;;;22.90;87.70;;;;;;5058395;28;20020;-88
2022/08/17 08:35:48;;;;;;;22.08;18.70;;;23.00;87.90;;;;;;5081179;28;20025;-87
2022/08/17 08:38:37;;;;;;;23.83;20.13;;;23.00;88.10;;;;;;5078106;28;20059;-89
2022/08/17 08:41:28;;;;;;;21.88;19.60;;;23.10;88.20;;;;;;5074729;28;20031;-89
2022/08/17 08:44:28;;;;;;;21.65;18.98;;;23.20;88.40;;;;;;5074693;28;20416;-89
2022/08/17 08:47:19;;;;;;;22.92;18.73;;;23.30;88.30;;;;;;5076586;28;20031;-89
2022/08/17 08:50:07;;;;;;;21.35;18.90;;;23.30;88.30;;;;;;5076806;28;20035;-89
2022/08/17 08:52:50;;;;;;;21.98;19.42;;;23.40;88.30;;;;;;5075726;28;20079;-88
2022/08/17 08:55:20;;;;;;;22.90;20.45;;;23.40;88.10;;;;;;5073666;28;20021;-87
2022/08/17 08:57:49;;;;;;;22.33;19.52;;;23.30;87.90;;;;;;5074007;28;20032;-89
2022/08/17 09:00:22;;;;;;;22.33;20.08;;;23.30;87.80;;;;;;5074395;28;20052;-88
2022/08/17 09:03:03;;;;;;;24.63;22.00;;;23.20;87.90;;;;;;5074497;28;20021;-88
2022/08/17 09:05:38;;;;;;;25.55;22.38;;;23.20;87.90;;;;;;5074327;28;20032;-91
2022/08/17 09:08:27;;;;;;;25.38;22.58;;;23.10;88.10;;;;;;5073076;28;20130;-89
2022/08/17 09:11:02;;;;;;;27.02;23.48;;;23.00;88.20;;;;;;5074273;28;20103;-89
2022/08/17 09:14:04;;;;;;;25.70;22.92;;;22.90;88.20;;;;;;5073220;28;20016;-87
2022/08/17 09:16:40;;;;;;;24.95;22.30;;;22.90;88.50;;;;;;5073717;28;20025;-85
2022/08/17 09:19:19;;;;;;;24.48;21.55;;;22.80;88.80;;;;;;5072135;28;20036;-87
2022/08/17 09:21:54;;;;;;;24.20;21.10;;;22.70;88.80;;;;;;5072392;28;20051;-86
2022/08/17 09:24:30;;;;;;;24.02;21.02;;;22.70;89.90;;;;;;5071841;28;20032;-85
2022/08/17 09:27:06;;;;;;;22.02;19.60;;;22.70;89.60;;;;;;5073158;28;20050;-87
2022/08/17 09:29:37;;;;;;;22.85;20.38;;;22.80;89.80;;;;;;5072197;28;20028;-86
2022/08/17 09:32:13;;;;;;;21.27;18.00;;;22.90;90.00;;;;;;5073465;28;20024;-87
2022/08/17 09:34:46;;;;;;;19.90;17.45;;;23.00;90.00;;;;;;5073790;28;20028;-87
2022/08/17 09:37:38;;;;;;;19.27;17.02;;;23.20;90.00;;;;;;5073106;28;20546;-86
2022/08/17 09:40:16;;;;;;;18.85;16.73;;;23.40;90.00;;;;;;5076506;28;20031;-86
2022/08/17 09:42:48;;;;;;;20.83;18.48;;;23.60;89.80;;;;;;5077937;28;20103;-86
2022/08/17 09:45:38;;;;;;;18.70;15.32;;;23.80;89.20;;;;;;5078096;28;20016;-87
2022/08/17 09:48:13;;;;;;;18.80;16.38;;;24.00;88.70;;;;;;5076640;28;20372;-85
2022/08/17 09:50:51;;;;;;;16.40;14.70;;;24.10;88.00;;;;;;5075488;28;20070;-85
2022/08/17 09:53:17;;;;;;;15.60;13.77;;;24.20;87.40;;;;;;5076855;28;20116;-85
2022/08/17 09:56:07;;;;;;;16.40;14.70;;;24.30;87.10;;;;;;5058699;28;20124;-87
2022/08/17 09:58:59;;;;;;;13.85;12.43;;;24.50;86.50;;;;;;5075345;28;20037;-88
2022/08/17 10:01:36;;;;;;;15.38;13.68;;;24.60;86.00;;;;;;5047044;28;20419;-87
2022/08/17 10:04:23;;;;;;;14.68;12.95;;;24.60;85.40;;;;;;5055679;28;20108;-85
2022/08/17 10:07:08;;;;;;;15.40;13.90;;;24.80;85.00;;;;;;5057168;28;20112;-84
2022/08/17 10:09:37;;;;;;;15.52;13.63;;;24.80;84.30;;;;;;5057254;28;20020;-86
2022/08/17 10:12:20;;;;;;;14.77;12.75;;;25.00;84.10;;;;;;5055816;28;20086;-86
2022/08/17 10:15:17;;;;;;;14.20;12.70;;;25.10;83.80;;;;;;5055133;28;20035;-86
2022/08/17 10:17:56;;;;;;;14.88;13.30;;;25.20;83.10;;;;;;5055379;28;20075;-87
2022/08/17 10:20:33;;;;;;;15.02;13.43;;;25.40;82.50;;;;;;5055365;28;20412;-87
2022/08/17 10:26:16;;;;;;;14.23;12.25;;;25.60;81.40;;;;;;5055893;28;20464;-87
2022/08/17 10:28:57;;;;;;;12.85;10.32;;;25.60;80.80;;;;;;5056383;28;20029;-86
2022/08/17 10:31:47;;;;;;;14.00;12.35;;;25.60;80.20;;;;;;5064709;28;20028;-86
2022/08/17 10:34:31;;;;;;;14.15;11.30;;;25.60;79.80;;;;;;5069190;28;20036;-86
2022/08/17 10:36:56;;;;;;;;;;;25.60;79.50;;;;;;5075135;28;20082;-87
2022/08/17 10:39:48;;;;;;;16.08;11.80;;;25.60;79.30;;;;;;5074875;28;20288;-86
2022/08/17 10:42:49;;;;;;;13.88;12.38;;;25.60;79.20;;;;;;5076296;28;20029;-88
2022/08/17 10:45:28;;;;;;;15.15;12.88;;;25.60;79.10;;;;;;5075038;28;20112;-85
2022/08/17 10:47:59;;;;;;;14.43;12.77;;;25.50;78.90;;;;;;5076135;28;20028;-86
2022/08/17 10:50:48;;;;;;;14.88;13.18;;;25.40;78.90;;;;;;5075337;28;20017;-85
2022/08/17 10:53:47;;;;;;;16.00;13.77;;;25.30;78.80;;;;;;5074346;28;20040;-87
2022/08/17 10:56:12;;;;;;;16.25;14.52;;;25.20;78.80;;;;;;5074267;28;20392;-87
2022/08/17 10:58:54;;;;;;;14.90;13.07;;;25.10;78.90;;;;;;5074946;28;20100;-87
2022/08/17 11:01:58;;;;;;;15.50;13.35;;;25.00;79.10;;;;;;5074353;28;20032;-86
2022/08/17 11:04:45;;;;;;;15.98;13.95;;;25.00;79.30;;;;;;5074281;28;20028;-86
2022/08/17 11:07:24;;;;;;;15.45;13.85;;;24.90;79.50;;;;;;5076167;28;20033;-85
2022/08/17 11:10:19;;;;;;;16.02;14.38;;;24.90;79.60;;;;;;5074745;28;20021;-88
2022/08/17 11:13:02;;;;;;;15.20;13.70;;;24.90;79.60;;;;;;5075801;28;20054;-87
2022/08/17 11:16:07;;;;;;;16.77;15.00;;;24.80;79.70;;;;;;5076372;28;20082;-88
2022/08/17 11:18:52;;;;;;;19.00;16.95;;;24.60;79.90;;;;;;5074570;28;20131;-88
2022/08/17 11:21:53;;;;;;;20.60;18.55;;;24.60;80.40;;;;;;5074806;28;20119;-87
2022/08/17 11:24:50;;;;;;;20.38;18.30;;;24.40;81.40;;;;;;5063729;28;20556;-89
2022/08/17 11:27:34;;;;;;;23.45;21.08;;;24.20;82.30;;;;;;5074128;28;20158;-86
2022/08/17 11:30:13;;;;;;;23.35;20.95;;;24.00;83.00;;;;;;5074548;28;20032;-86
2022/08/17 11:32:50;;;;;;;25.58;22.65;;;23.90;83.80;;;;;;5075605;28;20028;-87
2022/08/17 11:35:21;;;;;;;22.98;20.02;;;23.70;84.60;;;;;;5075879;28;20073;-87
2022/08/17 11:38:49;;;;;;;24.42;21.95;;;23.60;84.80;;;;;;5074052;28;20040;-86
2022/08/17 11:41:32;;;;;;;23.42;21.02;;;23.40;85.40;;;;;;4993855;28;20134;-89
2022/08/17 11:44:01;;;;;;;23.80;21.33;;;23.30;85.90;;;;;;5075581;28;20016;-87
2022/08/17 11:52:50;;;;;;;26.58;23.90;;;23.20;87.10;;;;;;5075728;28;20055;-87
2022/08/17 11:55:30;;;;;;;25.90;23.10;;;23.10;87.80;;;;;;5074831;28;20043;-88
2022/08/17 11:58:28;;;;;;;24.27;21.73;;;23.00;88.40;;;;;;5075573;28;20040;-89
2022/08/17 12:01:01;;;;;;;23.65;20.35;;;23.00;88.70;;;;;;5073404;28;20033;-88
2022/08/17 12:03:32;;;;;;;23.30;20.15;;;23.00;88.80;;;;;;5057028;28;20021;-86
2022/08/17 12:06:06;;;;;;;22.67;20.27;;;23.00;89.00;;;;;;5075247;28;20431;-88
2022/08/17 12:08:40;;;;;;;22.27;19.88;;;23.00;89.10;;;;;;5075722;28;20051;-89
2022/08/17 12:11:09;;;;;;;;;;;23.10;89.20;;;;;;5075074;28;20024;-88
2022/08/17 12:13:43;;;;;;;23.42;21.05;;;23.10;89.20;;;;;;5074147;28;21327;-91
2022/08/17 12:16:16;;;;;;;23.80;21.50;;;23.00;89.00;;;;;;5073674;28;20028;-90
2022/08/17 12:18:57;;;;;;;24.33;21.73;;;23.10;89.00;;;;;;5073482;28;20036;-89
2022/08/17 12:21:40;;;;;;;21.52;18.70;;;23.00;89.10;;;;;;5074595;28;20039;-90
2022/08/17 12:24:35;;;;;;;21.70;19.50;;;22.90;89.40;;;;;;5073742;28;20112;-88
2022/08/17 12:27:03;;;;;;;21.95;19.70;;;22.90;89.50;;;;;;5073607;28;20069;-87
2022/08/17 12:29:31;;;;;;;21.98;19.73;;;22.90;89.70;;;;;;5073162;28;20032;-88
2022/08/17 12:31:58;;;;;;;21.02;18.83;;;22.80;89.80;;;;;;5056663;28;20461;-89
2022/08/17 12:34:38;;;;;;;21.02;18.85;;;22.90;90.00;;;;;;5057009;28;20029;-93
2022/08/17 12:37:11;;;;;;;23.23;20.77;;;22.90;90.00;;;;;;5073717;28;20021;-87
2022/08/17 12:39:39;;;;;;;21.70;19.42;;;23.00;90.10;;;;;;5073054;28;20082;-86
2022/08/17 12:42:05;;;;;;;20.63;18.55;;;23.10;90.10;;;;;;5056257;28;20029;-87
2022/08/17 12:44:33;;;;;;;22.83;20.42;;;23.20;90.20;;;;;;5056146;28;20024;-88
2022/08/17 12:47:16;;;;;;;23.30;20.90;;;23.20;90.20;;;;;;5073352;28;20111;-86
2022/08/17 12:49:45;;;;;;;22.58;20.20;;;23.30;90.20;;;;;;5073037;28;20023;-87
2022/08/17 12:52:22;;;;;;;20.95;18.75;;;23.30;90.10;;;;;;5074131;28;20091;-86
2022/08/17 12:54:51;;;;;;;20.58;18.48;;;23.30;90.20;;;;;;5074074;28;20033;-86
2022/08/17 12:57:22;;;;;;;18.92;17.02;;;23.30;90.20;;;;;;5073883;28;20460;-86
2022/08/17 13:00:08;;;;;;;19.95;17.70;;;23.40;90.20;;;;;;5075146;28;20080;-87
2022/08/17 13:03:04;;;;;;;19.70;17.38;;;23.40;90.10;;;;;;5075279;28;20075;-86
2022/08/17 13:05:34;;;;;;;21.88;19.63;;;23.50;90.00;;;;;;5071503;28;20036;-85
2022/08/17 13:08:11;;;;;;;21.77;19.38;;;23.50;89.80;;;;;;5070211;28;20040;-85
2022/08/17 13:10:37;;;;;;;21.65;19.35;;;23.50;89.80;;;;;;5054954;28;20075;-85
2022/08/17 13:13:16;;;;;;;19.90;17.83;;;23.50;89.60;;;;;;5016051;28;20033;-84
2022/08/17 13:16:01;;;;;;;24.13;20.88;;;23.50;89.60;;;;;;5051019;28;20434;-86
2022/08/17 13:18:37;;;;;;;20.58;18.45;;;23.40;89.40;;;;;;5051524;28;20037;-86
2022/08/17 13:21:05;;;;;;;20.73;18.60;;;23.40;89.30;;;;;;5052159;28;20069;-86
2022/08/17 13:23:31;;;;;;;20.58;18.33;;;23.40;89.40;;;;;;5051109;28;20027;-85
2022/08/17 13:26:08;;;;;;;20.27;18.15;;;23.40;89.70;;;;;;5051754;28;20033;-86
2022/08/17 13:28:36;;;;;;;20.48;18.33;;;23.40;89.90;;;;;;5051886;28;20013;-86
2022/08/17 13:31:29;;;;;;;20.88;18.77;;;23.40;89.80;;;;;;5053250;28;20576;-85